createdAt,value
2022-09-07T00:00:11.061Z,17.88
2022-09-07T00:03:14.258Z,17.75
2022-09-07T00:06:21.106Z,17.79
2022-09-07T00:09:24.054Z,17.83
2022-09-07T00:12:26.856Z,17.77
2022-09-07T00:15:29.936Z,17.65
2022-09-07T00:18:33.631Z,17.57
2022-09-07T00:21:37.023Z,17.56
2022-09-07T00:24:39.721Z,17.57
2022-09-07T00:27:42.771Z,17.58
2022-09-07T00:30:45.564Z,17.47
2022-09-07T00:33:50.084Z,17.38
2022-09-07T00:36:52.744Z,17.36
2022-09-07T00:39:55.825Z,17.34
2022-09-07T00:42:58.524Z,17.32
2022-09-07T00:46:03.759Z,17.28
2022-09-07T00:49:08.580Z,17.26
2022-09-07T00:52:13.489Z,17.20
2022-09-07T00:55:18.055Z,17.13
2022-09-07T00:58:22.758Z,17.11
2022-09-07T01:01:26.091Z,17.18
2022-09-07T01:04:31.122Z,17.16
2022-09-07T01:07:33.863Z,17.10
2022-09-07T01:10:37.719Z,16.99
2022-09-07T01:13:43.317Z,16.99
2022-09-07T01:17:10.049Z,17.01
2022-09-07T01:20:30.882Z,17.04
2022-09-07T01:23:59.663Z,16.91
2022-09-07T01:27:40.023Z,16.88
2022-09-07T01:31:10.328Z,16.82
2022-09-07T01:34:28.531Z,16.81
2022-09-07T01:37:52.881Z,16.71
2022-09-07T01:41:04.751Z,16.66
2022-09-07T01:44:28.332Z,16.71
2022-09-07T01:47:41.377Z,16.76
2022-09-07T01:50:52.367Z,16.70
2022-09-07T01:53:58.743Z,16.73
2022-09-07T01:57:09.036Z,16.65
2022-09-07T02:00:18.423Z,16.50
2022-09-07T02:03:29.772Z,16.46
2022-09-07T02:06:48.666Z,16.47
2022-09-07T02:09:57.771Z,16.41
2022-09-07T02:13:26.835Z,16.28
2022-09-07T02:16:32.656Z,16.34
2022-09-07T02:19:42.521Z,16.32
2022-09-07T02:22:51.257Z,16.35
2022-09-07T02:26:00.984Z,16.24
2022-09-07T02:29:04.296Z,16.29
2022-09-07T02:32:07.086Z,16.26
2022-09-07T02:35:10.270Z,16.23
2022-09-07T02:38:12.924Z,16.16
2022-09-07T02:41:36.217Z,16.18
2022-09-07T02:44:41.940Z,16.15
2022-09-07T02:47:50.896Z,16.08
2022-09-07T02:51:06.290Z,16.12
2022-09-07T02:54:49.667Z,16.11
2022-09-07T02:58:16.948Z,16.19
2022-09-07T03:01:43.775Z,16.07
2022-09-07T03:05:03.683Z,16.12
2022-09-07T03:08:15.702Z,16.02
2022-09-07T03:11:18.988Z,15.96
2022-09-07T03:14:24.596Z,15.82
2022-09-07T03:17:27.478Z,15.85
2022-09-07T03:20:30.537Z,15.96
2022-09-07T03:23:33.371Z,15.94
2022-09-07T03:26:43.460Z,15.92
2022-09-07T03:29:46.587Z,15.89
2022-09-07T03:32:49.751Z,15.79
2022-09-07T03:36:01.207Z,15.75
2022-09-07T03:39:07.357Z,15.79
2022-09-07T03:42:10.052Z,15.80
2022-09-07T03:45:13.021Z,15.76
2022-09-07T03:48:16.004Z,15.66
2022-09-07T03:51:19.201Z,15.62
2022-09-07T03:54:22.841Z,15.66
2022-09-07T03:57:26.018Z,15.61
2022-09-07T04:00:30.474Z,15.62
2022-09-07T04:03:33.800Z,15.66
2022-09-07T04:06:36.544Z,15.72
2022-09-07T04:09:39.618Z,15.74
2022-09-07T04:12:42.374Z,15.74
2022-09-07T04:15:45.610Z,15.73
2022-09-07T04:18:50.354Z,15.70
2022-09-07T04:21:53.467Z,15.75
2022-09-07T04:24:56.130Z,15.77
2022-09-07T04:27:59.136Z,15.80
2022-09-07T04:31:02.919Z,15.81
2022-09-07T04:34:06.964Z,15.75
2022-09-07T04:37:09.651Z,15.88
2022-09-07T04:40:12.797Z,15.94
2022-09-07T04:43:15.556Z,15.88
2022-09-07T04:46:24.140Z,15.98
2022-09-07T04:49:26.839Z,15.93
2022-09-07T04:52:29.875Z,15.91
2022-09-07T04:55:32.559Z,16.03
2022-09-07T04:58:36.308Z,16.09
2022-09-07T05:01:39.128Z,16.11
2022-09-07T05:04:42.304Z,16.17
2022-09-07T05:07:45.533Z,16.12
2022-09-07T05:10:56.833Z,16.24
2022-09-07T05:14:01.563Z,16.25
2022-09-07T05:17:04.609Z,16.42
2022-09-07T05:20:07.626Z,16.59
2022-09-07T05:23:10.633Z,16.69
2022-09-07T05:26:13.380Z,16.82
2022-09-07T05:32:45.496Z,17.28
2022-09-07T05:36:00.486Z,17.47
2022-09-07T05:39:04.797Z,17.62
2022-09-07T05:42:07.868Z,17.74
2022-09-07T05:45:11.112Z,17.85
2022-09-07T05:48:14.303Z,17.94
2022-09-07T05:51:16.996Z,18.06
2022-09-07T05:54:20.085Z,18.31
2022-09-07T05:57:22.717Z,18.48
2022-09-07T06:00:25.728Z,18.71
2022-09-07T06:03:28.833Z,18.90
2022-09-07T06:06:31.637Z,19.07
2022-09-07T06:09:34.795Z,19.24
2022-09-07T06:12:37.523Z,19.35
2022-09-07T06:15:40.569Z,19.51
2022-09-07T06:18:45.596Z,19.53
2022-09-07T06:21:48.787Z,19.70
2022-09-07T06:24:51.737Z,19.79
2022-09-07T06:27:54.883Z,19.90
2022-09-07T06:31:05.057Z,19.94
2022-09-07T06:34:08.988Z,20.11
2022-09-07T06:37:11.681Z,20.21
2022-09-07T06:40:14.969Z,20.25
2022-09-07T06:43:17.637Z,20.43
2022-09-07T06:49:44.217Z,20.65
2022-09-07T06:56:14.332Z,20.85
2022-09-07T06:59:17.375Z,20.98
2022-09-07T07:02:20.516Z,21.09
2022-09-07T07:05:23.607Z,21.16
2022-09-07T07:08:26.404Z,21.26
2022-09-07T07:11:31.019Z,21.37
2022-09-07T07:14:35.527Z,21.45
2022-09-07T07:17:39.379Z,21.57
2022-09-07T07:20:42.439Z,21.53
2022-09-07T07:23:50.303Z,21.74
2022-09-07T07:26:53.288Z,21.85
2022-09-07T07:29:56.323Z,21.98
2022-09-07T07:32:59.163Z,22.04
2022-09-07T07:36:09.338Z,22.13
2022-09-07T07:42:36.299Z,22.27
2022-09-07T07:48:55.209Z,22.38
2022-09-07T07:58:47.198Z,22.80
2022-09-07T08:01:50.994Z,22.94
2022-09-07T08:04:54.194Z,23.03
2022-09-07T08:07:56.891Z,23.15
2022-09-07T08:11:08.428Z,23.26
2022-09-07T08:14:11.079Z,23.34
2022-09-07T08:17:16.612Z,23.43
2022-09-07T08:20:19.353Z,23.57
2022-09-07T08:23:22.538Z,23.57
2022-09-07T08:26:25.063Z,23.73
2022-09-07T08:29:31.259Z,23.86
2022-09-07T08:32:36.780Z,24.11
2022-09-07T08:35:40.223Z,24.17
2022-09-07T08:38:44.063Z,24.25
2022-09-07T08:41:52.824Z,24.43
2022-09-07T08:45:03.044Z,24.50
2022-09-07T08:48:09.541Z,24.59
2022-09-07T08:51:24.564Z,24.66
2022-09-07T08:54:29.639Z,24.83
2022-09-07T08:57:39.212Z,25.05
2022-09-07T09:00:42.161Z,25.08
2022-09-07T09:07:28.316Z,25.18
2022-09-07T09:10:30.980Z,25.28
2022-09-07T09:13:38.918Z,25.39
2022-09-07T09:16:50.677Z,25.48
2022-09-07T09:20:37.410Z,25.57
2022-09-07T09:23:42.269Z,25.71
2022-09-07T09:29:58.098Z,25.85
2022-09-07T09:33:22.831Z,25.77
2022-09-07T09:36:34.294Z,26.00
2022-09-07T09:39:38.279Z,26.19
2022-09-07T09:42:41.018Z,26.29
2022-09-07T09:49:28.193Z,26.51
2022-09-07T09:52:44.990Z,26.48
2022-09-07T09:55:52.902Z,26.40
2022-09-07T10:06:25.727Z,26.91
2022-09-07T10:09:39.021Z,26.96
2022-09-07T10:12:42.640Z,27.12
2022-09-07T10:15:51.622Z,26.88
2022-09-07T10:18:56.611Z,27.05
2022-09-07T10:22:02.374Z,27.08
2022-09-07T10:25:28.387Z,26.98
2022-09-07T10:32:17.508Z,27.40
2022-09-07T10:35:31.463Z,27.62
2022-09-07T10:38:44.764Z,27.53
2022-09-07T10:42:07.461Z,27.46
2022-09-07T10:45:26.795Z,27.53
2022-09-07T10:48:41.555Z,27.57
2022-09-07T10:51:53.627Z,27.54
2022-09-07T10:55:17.370Z,27.70
2022-09-07T11:02:11.283Z,27.74
2022-09-07T11:05:34.331Z,27.83
2022-09-07T11:12:21.325Z,28.04
2022-09-07T11:15:28.714Z,28.11
2022-09-07T11:22:32.799Z,28.10
2022-09-07T11:25:43.312Z,28.38
2022-09-07T11:32:30.112Z,28.12
2022-09-07T11:35:41.551Z,28.35
2022-09-07T11:39:06.349Z,28.40
2022-09-07T11:42:43.190Z,28.43
2022-09-07T11:45:57.739Z,28.49
2022-09-07T11:49:03.393Z,28.33
2022-09-07T11:52:53.505Z,28.54
2022-09-07T11:56:00.811Z,28.38
2022-09-07T11:59:34.851Z,28.67
2022-09-07T12:03:06.327Z,28.62
2022-09-07T12:06:28.136Z,28.64
2022-09-07T12:09:55.748Z,28.74
2022-09-07T12:13:46.572Z,28.83
2022-09-07T12:17:00.621Z,28.70
2022-09-07T12:20:17.218Z,28.79
2022-09-07T12:23:28.420Z,28.68
2022-09-07T12:26:34.804Z,28.74
2022-09-07T12:29:57.221Z,29.00
2022-09-07T12:33:04.570Z,28.94
2022-09-07T12:36:28.657Z,28.84
2022-09-07T12:39:33.100Z,28.84
2022-09-07T12:42:37.324Z,28.79
2022-09-07T12:45:40.612Z,29.06
2022-09-07T12:49:04.638Z,29.13
2022-09-07T12:52:34.645Z,28.86
2022-09-07T12:59:24.491Z,29.02
2022-09-07T13:02:58.229Z,29.10
2022-09-07T13:06:14.719Z,29.16
2022-09-07T13:09:31.622Z,29.22
2022-09-07T13:16:06.396Z,29.28
2022-09-07T13:19:15.083Z,29.29
2022-09-07T13:22:32.902Z,29.27
2022-09-07T13:25:46.045Z,28.88
2022-09-07T13:28:55.919Z,29.07
2022-09-07T13:32:12.224Z,29.29
2022-09-07T13:35:17.552Z,29.44
2022-09-07T13:38:21.841Z,29.48
2022-09-07T13:41:31.845Z,29.53
2022-09-07T13:44:34.892Z,29.65
2022-09-07T13:47:49.632Z,29.58
2022-09-07T13:51:16.362Z,29.59
2022-09-07T13:54:58.516Z,29.49
2022-09-07T13:58:15.335Z,29.49
2022-09-07T14:01:22.086Z,29.45
2022-09-07T14:04:37.803Z,29.29
2022-09-07T14:07:45.804Z,29.43
2022-09-07T14:10:49.039Z,29.42
2022-09-07T14:14:27.130Z,29.54
2022-09-07T14:17:31.324Z,29.50
2022-09-07T14:20:40.688Z,29.44
2022-09-07T14:23:50.407Z,29.55
2022-09-07T14:26:53.058Z,29.54
2022-09-07T14:29:55.882Z,29.31
2022-09-07T14:33:04.752Z,29.29
2022-09-07T14:36:29.404Z,29.27
2022-09-07T14:39:34.679Z,29.36
2022-09-07T14:42:42.149Z,29.27
2022-09-07T14:45:44.762Z,29.29
2022-09-07T14:48:50.758Z,29.23
2022-09-07T14:51:55.111Z,29.23
2022-09-07T14:54:58.408Z,29.16
2022-09-07T14:58:13.219Z,29.10
2022-09-07T15:04:39.010Z,28.80
2022-09-07T15:07:46.769Z,28.78
2022-09-07T15:14:20.779Z,28.50
2022-09-07T15:17:46.671Z,28.46
2022-09-07T15:20:50.642Z,28.45
2022-09-07T15:23:55.229Z,28.38
2022-09-07T15:27:05.221Z,28.34
2022-09-07T15:30:11.335Z,28.29
2022-09-07T15:33:14.172Z,28.21
2022-09-07T15:36:17.284Z,28.18
2022-09-07T15:39:25.780Z,28.16
2022-09-07T15:45:51.568Z,28.06
2022-09-07T15:48:56.017Z,28.02
2022-09-07T15:52:06.596Z,27.96
2022-09-07T15:55:09.859Z,27.86
2022-09-07T15:58:13.056Z,27.76
2022-09-07T16:04:38.727Z,27.54
2022-09-07T16:11:18.465Z,27.17
2022-09-07T16:14:21.517Z,27.17
2022-09-07T16:17:26.895Z,27.12
2022-09-07T16:20:33.004Z,27.07
2022-09-07T16:23:37.179Z,26.96
2022-09-07T16:26:39.789Z,26.83
2022-09-07T16:29:43.359Z,26.72
2022-09-07T16:32:46.106Z,26.59
2022-09-07T16:36:00.608Z,26.49
2022-09-07T16:39:03.546Z,26.32
2022-09-07T16:42:07.219Z,26.16
2022-09-07T16:48:35.383Z,25.87
2022-09-07T16:51:39.733Z,25.74
2022-09-07T16:54:42.751Z,25.57
2022-09-07T17:01:11.455Z,25.20
2022-09-07T17:04:14.147Z,25.02
2022-09-07T17:07:17.371Z,24.91
2022-09-07T17:10:19.915Z,24.83
2022-09-07T17:13:22.944Z,24.72
2022-09-07T17:16:29.628Z,24.57
2022-09-07T17:19:33.373Z,24.46
2022-09-07T17:22:36.008Z,24.31
2022-09-07T17:25:39.121Z,24.16
2022-09-07T17:28:44.070Z,23.95
2022-09-07T17:35:09.755Z,23.68
2022-09-07T17:41:35.651Z,23.47
2022-09-07T17:44:38.665Z,23.35
2022-09-07T17:47:41.810Z,23.28
2022-09-07T17:50:44.796Z,23.16
2022-09-07T17:53:47.715Z,23.08
2022-09-07T17:56:50.541Z,22.97
2022-09-07T18:03:16.588Z,22.75
2022-09-07T18:06:20.204Z,22.67
2022-09-07T18:09:23.155Z,22.55
2022-09-07T18:12:25.871Z,22.49
2022-09-07T18:15:30.560Z,22.43
2022-09-07T18:18:33.169Z,22.32
2022-09-07T18:21:37.970Z,22.28
2022-09-07T18:24:40.565Z,22.16
2022-09-07T18:27:44.176Z,22.06
2022-09-07T18:30:46.817Z,22.00
2022-09-07T18:33:52.598Z,21.95
2022-09-07T18:36:55.356Z,21.91
2022-09-07T18:39:58.330Z,21.79
2022-09-07T18:43:04.247Z,21.72
2022-09-07T18:46:12.447Z,21.68
2022-09-07T18:49:15.526Z,21.59
2022-09-07T18:55:42.853Z,21.41
2022-09-07T18:58:46.676Z,21.35
2022-09-07T19:01:50.185Z,21.32
2022-09-07T19:08:16.289Z,21.24
2022-09-07T19:11:23.818Z,21.13
2022-09-07T19:14:27.683Z,21.06
2022-09-07T19:17:31.870Z,20.99
2022-09-07T19:20:35.340Z,20.94
2022-09-07T19:23:38.594Z,20.88
2022-09-07T19:26:44.359Z,20.85
2022-09-07T19:29:47.444Z,20.90
2022-09-07T19:32:49.977Z,20.73
2022-09-07T19:35:52.821Z,20.67
2022-09-07T19:38:56.095Z,20.74
2022-09-07T19:41:59.753Z,20.80
2022-09-07T19:45:02.375Z,20.73
2022-09-07T19:48:06.420Z,20.66
2022-09-07T19:51:11.584Z,20.57
2022-09-07T19:54:15.097Z,20.52
2022-09-07T19:57:17.900Z,20.48
2022-09-07T20:00:21.160Z,20.48
2022-09-07T20:03:24.031Z,20.45
2022-09-07T20:06:27.848Z,20.44
2022-09-07T20:09:30.773Z,20.44
2022-09-07T20:12:33.317Z,20.53
2022-09-07T20:15:40.493Z,20.54
2022-09-07T20:18:43.864Z,20.54
2022-09-07T20:21:48.134Z,20.52
2022-09-07T20:24:50.693Z,20.55
2022-09-07T20:27:54.052Z,20.60
2022-09-07T20:30:56.703Z,20.69
2022-09-07T20:33:59.591Z,20.60
2022-09-07T20:37:02.251Z,20.58
2022-09-07T20:40:07.227Z,20.52
2022-09-07T20:43:09.954Z,20.43
2022-09-07T20:46:13.032Z,20.38
2022-09-07T20:49:16.013Z,20.27
2022-09-07T20:52:18.834Z,20.26
2022-09-07T20:55:21.366Z,20.29
2022-09-07T20:58:24.264Z,20.20
2022-09-07T21:01:28.683Z,20.10
2022-09-07T21:04:31.537Z,20.03
2022-09-07T21:07:34.067Z,20.01
2022-09-07T21:10:41.244Z,19.99
2022-09-07T21:13:44.477Z,19.93
2022-09-07T21:16:47.328Z,19.94
2022-09-07T21:19:49.902Z,20.01
2022-09-07T21:22:52.734Z,19.95
2022-09-07T21:25:55.427Z,19.91
2022-09-07T21:29:00.534Z,19.88
2022-09-07T21:32:03.376Z,19.86
2022-09-07T21:35:06.972Z,19.83
2022-09-07T21:38:09.534Z,19.79
2022-09-07T21:41:14.876Z,19.73
2022-09-07T21:44:17.462Z,19.76
2022-09-07T21:47:20.525Z,19.73
2022-09-07T21:50:23.140Z,19.75
2022-09-07T21:53:26.028Z,19.77
2022-09-07T21:56:29.993Z,19.75
2022-09-07T21:59:32.882Z,19.74
2022-09-07T22:02:35.586Z,19.74
2022-09-07T22:05:38.520Z,19.71
2022-09-07T22:08:42.180Z,19.66
2022-09-07T22:11:46.223Z,19.73
2022-09-07T22:14:48.843Z,19.74
2022-09-07T22:17:55.043Z,19.71
2022-09-07T22:21:08.950Z,19.77
2022-09-07T22:24:15.115Z,19.73
2022-09-07T22:27:17.763Z,19.64
2022-09-07T22:30:20.775Z,19.66
2022-09-07T22:33:23.484Z,19.63
2022-09-07T22:36:29.556Z,19.63
2022-09-07T22:39:32.492Z,19.61
2022-09-07T22:42:35.378Z,19.62
2022-09-07T22:45:38.009Z,19.59
2022-09-07T22:48:41.688Z,19.58
2022-09-07T22:51:44.605Z,19.55
2022-09-07T22:54:47.451Z,19.53
2022-09-07T22:57:50.061Z,19.72
2022-09-07T23:00:52.951Z,19.83
2022-09-07T23:03:56.489Z,19.88
2022-09-07T23:06:59.432Z,19.94
2022-09-07T23:10:01.980Z,19.97
2022-09-07T23:13:05.290Z,19.89
2022-09-07T23:16:08.098Z,19.79
2022-09-07T23:19:13.139Z,19.76
2022-09-07T23:22:15.783Z,19.76
2022-09-07T23:25:19.328Z,19.78
2022-09-07T23:28:22.047Z,19.73
2022-09-07T23:31:26.229Z,19.73
2022-09-07T23:34:28.773Z,19.70
2022-09-07T23:37:31.887Z,19.70
2022-09-07T23:40:35.752Z,19.55
2022-09-07T23:43:38.613Z,19.55
2022-09-07T23:46:41.263Z,19.58
2022-09-07T23:49:44.085Z,19.51
2022-09-07T23:52:47.134Z,19.54
2022-09-07T23:55:51.573Z,19.52
2022-09-07T23:58:54.519Z,19.57
